PDT,Max TemperatureF,Mean TemperatureF,Min TemperatureF,Max Dew PointF,MeanDew PointF,Min DewpointF,Max Humidity, Mean Humidity, Min Humidity, Max Sea Level PressureIn, Mean Sea Level PressureIn, Min Sea Level PressureIn, Max VisibilityMiles, Mean VisibilityMiles, Min VisibilityMiles, Max Wind SpeedMPH, Mean Wind SpeedMPH, Max Gust SpeedMPH,PrecipitationIn, CloudCover, Events, WindDirDegrees
2013-5-1,57,44,30,27,21,15,78,49,20,30.60,30.53,30.37,10,10,10,13,6,17,0.00,1,,176
2013-5-2,67,51,35,29,24,20,64,41,18,30.60,30.45,30.25,10,10,10,13,4,17,0.00,5,,209
2013-5-3,70,60,50,37,34,30,54,39,23,30.25,30.21,30.17,10,10,10,16,6,21,0.00,4,,29
2013-5-4,71,59,46,38,31,24,71,45,18,30.26,30.17,30.07,10,10,10,23,11,32,T,2,Rain,53
2013-5-5,78,62,46,31,29,26,50,33,15,30.06,29.95,29.85,10,10,10,18,8,26,0.00,1,,46
2013-5-6,81,66,50,36,31,22,50,31,11,29.88,29.81,29.72,10,10,10,12,6,18,0.00,1,,24
2013-5-7,85,67,49,39,35,29,59,37,14,29.86,29.81,29.76,10,10,10,12,3,16,0.00,1,,68
2013-5-8,82,68,53,45,41,36,51,37,23,29.98,29.94,29.87,10,10,10,13,5,20,0.00,1,,188
2013-5-9,86,71,56,48,40,27,62,37,12,30.10,30.02,29.97,10,10,10,12,6,26,0.00,1,,192
2013-5-10,86,71,55,46,38,30,59,36,13,30.14,30.10,30.04,10,10,10,16,7,21,0.00,2,,176
2013-5-11,86,72,58,46,41,34,53,35,17,30.09,30.05,29.99,10,10,10,20,8,25,0.00,7,,194
2013-5-12,80,70,60,50,47,41,60,47,33,30.02,29.97,29.94,10,10,10,25,13,31,0.00,7,,210
2013-5-13,63,53,45,49,46,33,89,73,56,30.07,29.96,29.92,10,10,5,25,13,32,0.25,6,Rain,214
2013-5-14,61,51,40,33,29,24,76,51,25,30.15,30.11,30.06,10,10,10,17,6,22,0.00,4,,221
2013-5-15,65,53,40,38,33,29,79,53,27,30.08,30.01,29.92,10,10,10,15,4,20,T,7,Rain,173
2013-5-16,62,56,49,45,43,41,80,65,49,29.95,29.91,29.86,10,10,10,9,3,13,0.01,7,Rain,143
2013-5-17,68,57,45,46,44,39,93,65,37,29.94,29.88,29.84,10,10,10,24,7,30,0.00,6,Fog,247
2013-5-18,60,54,47,46,40,38,77,61,44,30.13,30.04,29.93,10,10,10,16,8,20,T,7,Rain,184
2013-5-19,64,56,48,48,42,40,80,64,48,30.24,30.21,30.13,10,10,10,21,6,25,T,6,Rain,202
2013-5-20,72,59,45,45,41,38,93,62,31,30.26,30.12,29.87,10,10,10,12,4,24,0.00,3,,166
2013-5-21,73,56,39,46,42,39,100,67,34,29.84,29.72,29.59,10,9,2,36,10,43,0.20,6,Fog-Rain,131
2013-5-22,50,44,37,41,37,33,100,78,56,30.02,29.89,29.78,10,6,0,21,9,28,0.04,7,Fog-Rain,187
2013-5-23,59,48,37,38,34,29,92,63,33,30.04,30.00,29.95,10,8,0,12,5,14,0.00,6,Fog,46
2013-5-24,53,46,38,42,38,34,92,73,54,30.03,29.98,29.94,10,10,10,17,8,22,T,6,Rain,195
2013-5-25,61,51,40,40,37,32,92,65,37,30.04,30.00,29.98,10,10,10,14,6,20,0.00,5,,171
2013-5-26,69,56,42,46,39,34,89,59,29,29.98,29.94,29.89,10,10,10,20,8,22,0.03,6,Rain,280
2013-5-27,65,57,49,48,44,36,93,65,36,29.93,29.85,29.78,10,10,6,22,7,24,0.10,7,Rain,194
2013-5-28,61,55,48,48,46,41,93,73,53,29.84,29.81,29.77,10,9,4,21,7,24,0.09,7,Rain,216
2013-5-29,60,53,45,48,44,39,93,78,62,29.86,29.75,29.67,10,10,7,23,10,32,0.08,7,Rain,193
2013-5-30,63,53,43,45,38,31,89,61,32,30.11,30.00,29.88,10,10,10,21,12,28,T,4,,211
2013-5-31,67,54,40,38,35,31,79,53,26,30.26,30.22,30.12,10,10,10,16,7,28,0.00,2,,198